Time;durP1;ratioP1;P1;durP2;ratioP2;P2;SDS_P1;SDS_P2;PMS_P1;PMS_P2;Temp;Humidity;BMP_temperature;BMP_pressure;BME280_temperature;BME280_humidity;BME280_pressure;Samples;Min_cycle;Max_cycle;Signal;HPM_P1;HPM_P2
2022/04/03 00:00:58;;;;;;;2.97;1.85;;;;;;;3.25;49.87;100377.66;5090709;28;20558;-60
2022/04/03 00:03:24;;;;;;;3.10;2.10;;;;;;;3.23;50.20;100376.84;5090584;28;20512;-59
2022/04/03 00:05:51;;;;;;;3.90;2.15;;;;;;;3.22;49.53;100382.91;5091885;28;20139;-60
2022/04/03 00:08:17;;;;;;;2.72;2.22;;;;;;;3.21;50.33;100377.75;5091715;28;20052;-59
2022/04/03 00:10:46;;;;;;;3.13;2.05;;;;;;;3.19;50.15;100371.72;5091128;28;20067;-59
2022/04/03 00:13:12;;;;;;;6.10;2.63;;;;;;;3.19;50.25;100377.78;5091637;28;20105;-60
2022/04/03 00:15:42;;;;;;;2.65;1.88;;;;;;;3.19;50.04;100374.31;5091602;28;20044;-60
2022/04/03 00:18:09;;;;;;;2.85;2.05;;;;;;;3.19;50.00;100369.97;5090448;28;20052;-59
2022/04/03 00:20:37;;;;;;;2.80;1.98;;;;;;;3.18;50.47;100370.00;5089997;28;20067;-60
2022/04/03 00:23:04;;;;;;;2.95;2.08;;;;;;;3.17;50.13;100363.91;5090120;28;20056;-59
2022/04/03 00:25:31;;;;;;;3.55;2.10;;;;;;;3.16;50.16;100372.63;5091503;28;20048;-59
2022/04/03 00:27:57;;;;;;;3.50;2.03;;;;;;;3.15;50.29;100370.91;5091536;28;20048;-60
2022/04/03 00:30:24;;;;;;;5.00;2.33;;;;;;;3.15;50.46;100375.25;5089943;28;20059;-59
2022/04/03 00:32:50;;;;;;;2.78;1.85;;;;;;;3.13;50.08;100373.53;5091264;28;20443;-59
2022/04/03 00:35:17;;;;;;;6.85;2.40;;;;;;;3.12;50.60;100374.41;5091203;28;20055;-59
2022/04/03 00:37:44;;;;;;;3.17;1.88;;;;;;;3.11;50.39;100377.03;5091234;28;20135;-61
2022/04/03 00:40:10;;;;;;;3.35;2.20;;;;;;;3.09;50.14;100382.25;5091247;28;20048;-60
2022/04/03 00:42:37;;;;;;;3.40;1.92;;;;;;;3.09;50.40;100378.78;5091419;28;20044;-59
2022/04/03 00:45:05;;;;;;;3.83;2.03;;;;;;;3.07;50.44;100370.16;5091011;28;20420;-60
2022/04/03 00:47:33;;;;;;;4.13;2.42;;;;;;;3.06;50.31;100371.91;5090954;28;20052;-61
2022/04/03 00:50:00;;;;;;;5.13;2.55;;;;;;;3.03;50.68;100366.75;5090758;28;20052;-59
2022/04/03 00:52:27;;;;;;;4.13;2.05;;;;;;;3.02;50.71;100364.19;5091062;28;20400;-61
2022/04/03 00:54:54;;;;;;;6.40;2.45;;;;;;;3.02;50.01;100369.38;5091117;28;20464;-59
2022/04/03 00:57:22;;;;;;;3.90;2.17;;;;;;;3.00;50.66;100370.25;5088149;28;20054;-59
2022/04/03 00:59:49;;;;;;;3.58;2.00;;;;;;;2.98;50.46;100361.63;5102017;28;20051;-59
2022/04/03 01:02:16;;;;;;;7.35;1.90;;;;;;;2.99;50.33;100373.75;5090795;28;20036;-60
2022/04/03 01:04:43;;;;;;;6.82;2.10;;;;;;;2.96;50.25;100365.97;5090849;28;20047;-59
2022/04/03 01:07:16;;;;;;;3.90;2.38;;;;;;;2.95;50.64;100363.44;5090847;28;20102;-59
2022/04/03 01:09:44;;;;;;;6.00;3.13;;;;;;;2.95;50.18;100366.88;5090116;28;20048;-60
2022/04/03 01:12:11;;;;;;;3.75;2.40;;;;;;;2.94;50.80;100367.75;5090069;28;20056;-59
2022/04/03 01:14:40;;;;;;;5.65;2.20;;;;;;;2.94;50.70;100366.88;5089277;28;20454;-59
2022/04/03 01:17:10;;;;;;;3.28;2.15;;;;;;;2.93;50.69;100366.03;5089227;28;20451;-61
2022/04/03 01:19:38;;;;;;;3.83;2.40;;;;;;;2.94;50.72;100366.88;5090341;28;20044;-59
2022/04/03 01:22:05;;;;;;;2.80;1.65;;;;;;;2.97;51.27;100364.25;5089118;28;20079;-61
2022/04/03 01:24:32;;;;;;;3.70;2.08;;;;;;;2.98;50.95;100369.44;5089135;28;20504;-59
2022/04/03 01:27:03;;;;;;;4.65;2.40;;;;;;;3.03;50.82;100360.69;5090483;28;20691;-60
2022/04/03 01:29:30;;;;;;;3.25;2.08;;;;;;;3.07;51.59;100364.97;5088802;28;20131;-59
2022/04/03 01:31:57;;;;;;;3.60;2.10;;;;;;;3.12;51.45;100368.34;5084668;28;20059;-60
2022/04/03 01:34:23;;;;;;;3.40;2.08;;;;;;;3.17;51.20;100363.09;5078503;28;20044;-59
2022/04/03 01:36:50;;;;;;;5.03;2.20;;;;;;;3.21;51.69;100365.59;5090181;28;20048;-59
2022/04/03 01:39:17;;;;;;;3.10;2.10;;;;;;;3.25;51.18;100356.84;5090307;28;20065;-59
2022/04/03 01:41:44;;;;;;;5.45;2.10;;;;;;;3.30;51.53;100361.13;5090106;28;20492;-59
2022/04/03 01:44:12;;;;;;;4.20;2.22;;;;;;;3.33;51.41;100354.09;5089095;28;20055;-59
2022/04/03 01:46:39;;;;;;;4.32;2.00;;;;;;;3.36;51.38;100358.41;5089130;28;20097;-59
2022/04/03 01:49:07;;;;;;;4.38;2.15;;;;;;;3.39;51.49;100354.03;5089928;28;20052;-63
2022/04/03 01:51:35;;;;;;;2.85;1.80;;;;;;;3.42;51.49;100355.72;5088638;28;20059;-59
2022/04/03 01:54:03;;;;;;;3.53;2.10;;;;;;;3.45;51.71;100355.66;5089326;28;20058;-60
2022/04/03 01:56:30;;;;;;;7.30;2.15;;;;;;;3.48;51.10;100347.78;5088975;28;20048;-60
2022/04/03 01:58:57;;;;;;;3.65;1.90;;;;;;;3.50;51.27;100353.81;5088664;28;20397;-59
2022/04/03 02:01:24;;;;;;;3.28;2.00;;;;;;;3.52;51.55;100344.22;5089517;28;20052;-59
2022/04/03 02:03:51;;;;;;;2.97;2.03;;;;;;;3.55;51.54;100345.91;5090169;28;20059;-59
2022/04/03 02:06:18;;;;;;;2.97;1.90;;;;;;;3.57;50.79;100346.75;5089868;28;20090;-60
2022/04/03 02:08:44;;;;;;;3.28;1.95;;;;;;;3.58;51.00;100343.28;5089991;28;20052;-60
2022/04/03 02:11:11;;;;;;;3.20;1.90;;;;;;;3.60;50.99;100351.06;5088670;28;20459;-59
2022/04/03 02:13:37;;;;;;;2.97;1.90;;;;;;;3.60;50.77;100344.13;5090220;28;20107;-59
2022/04/03 02:16:04;;;;;;;3.72;2.05;;;;;;;3.63;50.53;100343.19;5089806;28;20059;-61
2022/04/03 02:18:30;;;;;;;4.63;2.10;;;;;;;3.63;50.58;100341.44;5089745;28;20075;-59
2022/04/03 02:20:57;;;;;;;2.13;1.48;;;;;;;3.65;50.90;100349.22;5089643;28;20071;-59
2022/04/03 02:23:24;;;;;;;3.33;1.65;;;;;;;3.66;50.84;100345.72;5092070;28;20055;-60
2022/04/03 02:25:52;;;;;;;5.03;1.83;;;;;;;3.66;50.93;100332.69;5093999;28;20048;-61
2022/04/03 02:28:19;;;;;;;4.05;2.33;;;;;;;3.68;50.58;100333.53;5093616;28;20138;-60
2022/04/03 02:30:48;;;;;;;3.40;2.00;;;;;;;3.69;50.79;100335.25;5092239;28;20484;-60
2022/04/03 02:33:15;;;;;;;2.80;1.80;;;;;;;3.71;50.48;100338.72;5092354;28;20141;-60
2022/04/03 02:35:42;;;;;;;3.45;1.90;;;;;;;3.70;50.13;100349.97;5092732;28;20051;-59
2022/04/03 02:38:09;;;;;;;4.53;2.15;;;;;;;3.69;50.04;100343.06;5093624;28;20048;-60
2022/04/03 02:40:35;;;;;;;3.90;1.50;;;;;;;3.68;50.45;100341.34;5093331;28;20056;-63
2022/04/03 02:43:03;;;;;;;3.25;1.50;;;;;;;3.66;49.99;100350.94;5093432;28;20520;-59
2022/04/03 02:45:29;;;;;;;4.00;2.30;;;;;;;3.64;50.06;100342.31;5092161;28;20048;-60
2022/04/03 02:47:56;;;;;;;4.72;1.65;;;;;;;3.61;49.94;100348.44;5093454;28;20074;-60
2022/04/03 02:50:25;;;;;;;2.65;1.63;;;;;;;3.57;49.72;100341.56;5093391;28;20051;-60
2022/04/03 02:52:54;;;;;;;2.90;2.17;;;;;;;3.54;49.90;100338.16;5093328;28;20050;-59
2022/04/03 02:55:22;;;;;;;4.22;1.80;;;;;;;3.49;50.16;100346.91;5093207;28;20044;-62
2022/04/03 02:57:49;;;;;;;3.95;2.08;;;;;;;3.45;49.64;100346.97;5093114;28;20060;-60
2022/04/03 03:00:17;;;;;;;3.05;1.85;;;;;;;3.41;50.05;100343.59;5092989;28;20051;-59
2022/04/03 03:02:45;;;;;;;4.97;2.05;;;;;;;3.37;50.02;100345.38;5091810;28;20055;-60
2022/04/03 03:05:13;;;;;;;2.22;1.50;;;;;;;3.34;49.83;100339.38;5093425;28;20048;-60
2022/04/03 03:07:42;;;;;;;3.75;1.50;;;;;;;3.29;50.10;100347.25;5093040;28;20527;-59
2022/04/03 03:10:13;;;;;;;2.67;1.63;;;;;;;3.25;49.78;100338.63;5091327;28;20044;-59
2022/04/03 03:12:40;;;;;;;7.63;1.40;;;;;;;3.24;49.79;100349.06;5092917;28;20450;-60
2022/04/03 03:15:07;;;;;;;2.38;1.10;;;;;;;3.21;49.98;100349.16;5091565;28;20048;-60
2022/04/03 03:17:34;;;;;;;3.95;1.70;;;;;;;3.18;49.98;100343.97;5092938;28;20454;-60
2022/04/03 03:20:00;;;;;;;2.70;1.60;;;;;;;3.13;49.74;100338.84;5092659;28;20051;-59
2022/04/03 03:22:27;;;;;;;4.15;1.50;;;;;;;3.09;49.44;100339.78;5092829;28;20055;-57
2022/04/03 03:24:53;;;;;;;3.13;1.40;;;;;;;3.05;49.48;100341.59;5092915;28;20044;-61
2022/04/03 03:27:20;;;;;;;2.88;1.60;;;;;;;3.01;49.37;100345.13;5092528;28;20051;-60
2022/04/03 03:29:47;;;;;;;4.93;1.55;;;;;;;2.97;49.67;100335.63;5092345;28;20047;-59
2022/04/03 03:32:13;;;;;;;4.47;1.50;;;;;;;2.93;50.16;100337.44;5092777;28;20512;-62
2022/04/03 03:34:40;;;;;;;3.70;1.65;;;;;;;2.90;50.04;100339.22;5092492;28;20052;-60
2022/04/03 03:37:08;;;;;;;2.92;1.40;;;;;;;2.87;49.68;100345.31;5092556;28;20389;-59
2022/04/03 03:39:35;;;;;;;5.60;1.27;;;;;;;2.84;50.13;100337.59;5090998;28;20048;-60
2022/04/03 03:42:02;;;;;;;3.35;1.45;;;;;;;2.82;49.73;100337.59;5091303;28;20048;-61
2022/04/03 03:44:29;;;;;;;4.03;1.20;;;;;;;2.80;50.08;100336.75;5092796;28;20052;-60
2022/04/03 03:46:55;;;;;;;3.38;1.40;;;;;;;2.78;50.00;100335.94;5092429;28;20048;-59
2022/04/03 03:49:23;;;;;;;6.35;1.60;;;;;;;2.76;49.74;100334.25;5092014;28;20040;-60
2022/04/03 03:51:50;;;;;;;2.67;1.58;;;;;;;2.73;49.98;100337.75;5092445;28;20087;-60
2022/04/03 03:54:16;;;;;;;4.10;1.60;;;;;;;2.72;50.12;100336.00;5092220;28;20056;-59
2022/04/03 03:56:43;;;;;;;3.90;1.60;;;;;;;2.70;50.34;100343.00;5092225;28;20518;-59
2022/04/03 03:59:10;;;;;;;2.67;1.40;;;;;;;2.69;50.08;100341.28;5090940;28;20458;-60
2022/04/03 04:01:36;;;;;;;3.88;1.08;;;;;;;2.68;50.07;100339.53;5092114;28;20052;-59
2022/04/03 04:04:03;;;;;;;4.03;1.48;;;;;;;2.66;50.66;100339.59;5092194;28;20044;-59
2022/04/03 04:06:30;;;;;;;4.30;1.20;;;;;;;2.66;49.83;100342.19;5091922;28;20101;-59
2022/04/03 04:08:56;;;;;;;4.40;1.25;;;;;;;2.66;50.28;100334.38;5091524;28;20047;-61
2022/04/03 04:11:23;;;;;;;1.90;1.20;;;;;;;2.65;50.63;100337.84;5091474;28;20055;-60
2022/04/03 04:13:50;;;;;;;3.03;1.23;;;;;;;2.66;50.10;100342.19;5091747;28;20051;-59
2022/04/03 04:16:16;;;;;;;1.88;1.20;;;;;;;2.66;50.30;100337.00;5091874;28;20052;-59
2022/04/03 04:18:43;;;;;;;4.15;1.80;;;;;;;2.68;50.26;100332.63;5091541;28;20086;-60
2022/04/03 04:21:11;;;;;;;2.10;1.40;;;;;;;2.67;50.89;100338.69;5091021;28;20090;-59
2022/04/03 04:23:38;;;;;;;2.35;1.30;;;;;;;2.69;50.64;100328.28;5091129;28;20454;-59
2022/04/03 04:26:05;;;;;;;4.78;1.67;;;;;;;2.70;50.56;100335.19;5091683;28;20586;-60
2022/04/03 04:28:31;;;;;;;2.17;1.30;;;;;;;2.71;50.38;100329.97;5091809;28;20052;-60
2022/04/03 04:30:58;;;;;;;2.30;1.48;;;;;;;2.72;50.57;100336.00;5091147;28;20048;-59
2022/04/03 04:33:25;;;;;;;2.60;1.27;;;;;;;2.72;50.41;100336.00;5091389;28;20693;-60
2022/04/03 04:35:52;;;;;;;2.95;1.17;;;;;;;2.73;50.68;100337.75;5091402;28;20048;-59
2022/04/03 04:38:19;;;;;;;2.50;1.27;;;;;;;2.74;50.43;100340.31;5091278;28;20492;-59
2022/04/03 04:40:46;;;;;;;2.67;1.10;;;;;;;2.73;50.73;100338.59;5089915;28;20129;-59
2022/04/03 04:43:13;;;;;;;5.40;0.98;;;;;;;2.73;51.04;100342.97;5091325;28;20051;-60
2022/04/03 04:45:40;;;;;;;2.05;1.20;;;;;;;2.72;50.20;100342.09;5089456;28;20055;-59
2022/04/03 04:48:07;;;;;;;1.95;1.20;;;;;;;2.72;50.18;100341.22;5089804;28;20055;-60
2022/04/03 04:50:33;;;;;;;5.05;1.20;;;;;;;2.71;50.35;100342.97;5090660;28;20108;-60
2022/04/03 04:53:00;;;;;;;3.00;1.05;;;;;;;2.70;50.58;100348.19;5089354;28;20044;-59
2022/04/03 04:55:26;;;;;;;1.10;0.90;;;;;;;2.70;50.77;100356.81;5091077;28;20044;-60
2022/04/03 04:57:56;;;;;;;2.97;1.17;;;;;;;2.69;49.94;100356.88;5091073;28;20052;-59
2022/04/03 05:00:24;;;;;;;2.00;1.20;;;;;;;2.68;50.46;100361.22;5090804;28;20076;-59
2022/04/03 05:02:51;;;;;;;2.60;1.00;;;;;;;2.69;50.91;100359.47;5089461;28;20478;-58
2022/04/03 05:05:19;;;;;;;3.67;1.10;;;;;;;2.69;50.97;100362.91;5090473;28;20056;-59
2022/04/03 05:07:49;;;;;;;5.68;1.30;;;;;;;2.70;51.08;100369.00;5089529;28;20586;-60
2022/04/03 05:10:16;;;;;;;3.78;1.02;;;;;;;2.71;51.06;100355.97;5089174;28;20048;-60
2022/04/03 05:12:43;;;;;;;2.83;1.10;;;;;;;2.72;50.51;100356.81;5090714;28;20055;-61
2022/04/03 05:15:11;;;;;;;2.17;0.95;;;;;;;2.72;50.94;100360.28;5090355;28;20484;-60
2022/04/03 05:17:42;;;;;;;4.53;1.10;;;;;;;2.72;50.98;100360.28;5090570;28;20440;-60
2022/04/03 05:20:13;;;;;;;1.95;1.00;;;;;;;2.74;50.99;100357.66;5089087;28;20059;-60
2022/04/03 05:22:42;;;;;;;2.00;1.35;;;;;;;2.77;51.13;100357.63;5090316;28;20055;-60
2022/04/03 05:25:13;;;;;;;3.03;1.50;;;;;;;2.77;50.72;100365.44;5090557;28;20093;-62
2022/04/03 05:27:41;;;;;;;4.05;1.20;;;;;;;2.78;51.03;100363.66;5090421;28;20043;-59
2022/04/03 05:30:09;;;;;;;3.22;1.15;;;;;;;2.78;50.95;100367.13;5089859;28;20097;-62
2022/04/03 05:32:36;;;;;;;3.28;1.05;;;;;;;2.80;51.36;100365.34;5090165;28;20044;-59
2022/04/03 05:35:05;;;;;;;2.00;1.55;;;;;;;2.78;50.83;100368.88;5072212;28;20089;-60
2022/04/03 05:37:39;;;;;;;1.98;1.05;;;;;;;2.78;50.99;100367.13;5090150;28;20058;-59
2022/04/03 05:40:07;;;;;;;4.68;1.08;;;;;;;2.77;51.50;100364.56;5089716;28;20496;-61
2022/04/03 05:42:35;;;;;;;1.73;1.05;;;;;;;2.77;51.15;100362.81;5088527;28;20085;-58
2022/04/03 05:45:04;;;;;;;2.85;1.15;;;;;;;2.77;51.02;100365.44;5090088;28;20059;-60
2022/04/03 05:47:31;;;;;;;2.28;1.10;;;;;;;2.78;51.15;100367.13;5088944;28;20063;-60
2022/04/03 05:49:58;;;;;;;2.28;1.20;;;;;;;2.80;51.74;100357.56;5089839;28;20571;-58
2022/04/03 05:52:25;;;;;;;2.13;1.10;;;;;;;2.82;51.68;100366.22;5090261;28;20044;-59
2022/04/03 05:54:52;;;;;;;2.47;1.15;;;;;;;2.88;51.39;100362.66;5090065;28;20063;-59
2022/04/03 05:57:18;;;;;;;3.45;1.20;;;;;;;2.92;52.02;100364.31;5090132;28;20044;-60
2022/04/03 05:59:45;;;;;;;3.75;1.27;;;;;;;2.97;51.88;100375.53;5094339;28;20059;-59
2022/04/03 06:02:12;;;;;;;2.67;1.30;;;;;;;3.02;51.31;100369.38;5094076;28;20047;-60
2022/04/03 06:04:39;;;;;;;3.90;1.58;;;;;;;3.04;51.15;100376.28;5092610;28;20139;-59
2022/04/03 06:07:07;;;;;;;2.97;1.30;;;;;;;3.09;51.17;100371.00;5092890;28;20056;-60
2022/04/03 06:09:34;;;;;;;2.00;1.30;;;;;;;3.10;51.46;100378.78;5093761;28;20527;-59
2022/04/03 06:12:00;;;;;;;3.17;1.35;;;;;;;3.13;51.00;100378.72;5092111;28;20052;-59
2022/04/03 06:14:27;;;;;;;4.03;1.75;;;;;;;3.14;51.44;100376.97;5093824;28;20701;-61
2022/04/03 06:16:54;;;;;;;2.83;1.60;;;;;;;3.17;51.55;100378.69;5093736;28;20047;-60
2022/04/03 06:19:20;;;;;;;2.70;1.60;;;;;;;3.20;51.47;100386.44;5093674;28;20507;-62
2022/04/03 06:21:47;;;;;;;4.03;1.40;;;;;;;3.23;51.55;100384.66;5093611;28;20051;-61
2022/04/03 06:24:13;;;;;;;4.00;1.35;;;;;;;3.27;51.26;100382.84;5093399;28;20064;-62
2022/04/03 06:26:40;;;;;;;2.83;1.50;;;;;;;3.31;51.24;100386.25;5093463;28;20083;-59
2022/04/03 06:29:06;;;;;;;2.85;1.45;;;;;;;3.35;51.33;100382.72;5093618;28;20059;-62
2022/04/03 06:31:33;;;;;;;5.82;1.90;;;;;;;3.40;51.27;100380.88;5093570;28;20056;-59
2022/04/03 06:34:02;;;;;;;3.13;1.40;;;;;;;3.46;51.58;100391.22;5092303;28;20044;-60
2022/04/03 06:36:28;;;;;;;2.97;1.45;;;;;;;3.52;51.28;100385.88;5093526;28;20052;-60
2022/04/03 06:38:55;;;;;;;2.83;1.58;;;;;;;3.57;51.11;100382.34;5092765;28;20059;-59
2022/04/03 06:41:23;;;;;;;3.47;1.63;;;;;;;3.62;50.78;100390.91;5093115;28;20058;-60
2022/04/03 06:43:50;;;;;;;2.88;1.40;;;;;;;3.66;50.83;100382.16;5092270;28;20052;-59
2022/04/03 06:46:16;;;;;;;4.57;1.40;;;;;;;3.67;50.82;100378.69;5093533;28;20052;-60
2022/04/03 06:48:43;;;;;;;4.63;1.40;;;;;;;3.70;51.15;100377.78;5093397;28;20051;-59
2022/04/03 06:51:10;;;;;;;5.43;1.30;;;;;;;3.72;50.63;100381.19;5092993;28;20118;-61
2022/04/03 06:53:36;;;;;;;3.13;1.33;;;;;;;3.72;50.71;100373.41;5093012;28;20048;-60
2022/04/03 06:56:03;;;;;;;2.30;1.50;;;;;;;3.74;50.98;100369.03;5092907;28;20059;-60
2022/04/03 06:58:30;;;;;;;2.85;1.40;;;;;;;3.74;50.50;100371.63;5092794;28;20056;-62
2022/04/03 07:00:57;;;;;;;4.35;1.38;;;;;;;3.75;50.60;100376.81;5092714;28;20829;-59
2022/04/03 07:03:24;;;;;;;2.97;1.50;;;;;;;3.76;51.00;100375.06;5091034;28;20051;-60
2022/04/03 07:05:50;;;;;;;1.70;1.40;;;;;;;3.77;51.05;100380.25;5093088;28;20056;-60
2022/04/03 07:08:17;;;;;;;2.05;1.40;;;;;;;3.77;50.78;100377.63;5092474;28;20044;-59
2022/04/03 07:10:45;;;;;;;2.83;1.33;;;;;;;3.80;51.01;100383.66;5092598;28;20087;-60
2022/04/03 07:13:11;;;;;;;3.15;1.35;;;;;;;3.81;51.34;100382.78;5093025;28;20484;-59
2022/04/03 07:15:38;;;;;;;2.00;1.50;;;;;;;3.83;51.75;100381.00;5093160;28;20121;-60
2022/04/03 07:18:05;;;;;;;3.90;1.98;;;;;;;3.86;52.11;100383.56;5093123;28;20048;-61
2022/04/03 07:20:31;;;;;;;6.00;1.83;;;;;;;3.92;52.07;100391.25;5092665;28;20488;-60
2022/04/03 07:22:58;;;;;;;2.42;1.50;;;;;;;3.99;51.81;100389.38;5092715;28;20044;-60
2022/04/03 07:25:24;;;;;;;3.08;1.73;;;;;;;4.07;52.22;100394.47;5092930;28;20052;-59
2022/04/03 07:27:51;;;;;;;2.42;1.50;;;;;;;4.16;52.51;100389.91;5092904;28;20060;-61
2022/04/03 07:30:17;;;;;;;2.45;1.38;;;;;;;4.26;52.50;100395.78;5092658;28;20055;-60
2022/04/03 07:32:44;;;;;;;2.22;1.58;;;;;;;4.35;52.26;100401.72;5091988;28;20059;-59
2022/04/03 07:35:11;;;;;;;2.40;1.50;;;;;;;4.43;52.54;100405.88;5079011;28;20040;-58
2022/04/03 07:37:38;;;;;;;3.03;1.40;;;;;;;4.54;52.37;100413.47;5088786;28;20051;-62
2022/04/03 07:40:08;;;;;;;2.47;1.30;;;;;;;4.62;52.37;100418.53;5071905;28;20045;-59
2022/04/03 07:42:36;;;;;;;3.72;1.85;;;;;;;4.70;52.02;100418.34;5087715;28;20393;-59
2022/04/03 07:45:04;;;;;;;4.63;1.70;;;;;;;4.76;52.21;100417.34;5072271;28;20056;-60
2022/04/03 07:47:32;;;;;;;4.22;1.88;;;;;;;4.80;52.43;100417.28;5072045;28;20053;-59
2022/04/03 07:50:03;;;;;;;2.30;1.60;;;;;;;4.83;52.27;100409.34;5071722;28;20045;-61
2022/04/03 07:52:32;;;;;;;2.45;1.52;;;;;;;4.86;52.08;100412.78;5089028;28;20044;-59
2022/04/03 07:54:59;;;;;;;3.95;2.10;;;;;;;4.87;52.18;100411.91;5090856;28;20044;-61
2022/04/03 07:57:26;;;;;;;6.10;1.90;;;;;;;4.87;52.79;100407.56;5092016;28;20569;-59
2022/04/03 07:59:53;;;;;;;3.78;1.73;;;;;;;4.89;52.81;100415.31;5090789;28;20048;-60
2022/04/03 08:02:20;;;;;;;2.72;1.58;;;;;;;4.91;53.33;100408.31;5091866;28;20048;-59
2022/04/03 08:04:47;;;;;;;2.53;1.60;;;;;;;4.94;53.28;100416.09;5092063;28;20084;-60
2022/04/03 08:07:13;;;;;;;2.90;1.52;;;;;;;4.98;53.96;100417.75;5091794;28;20056;-61
2022/04/03 08:09:40;;;;;;;3.08;1.65;;;;;;;5.03;54.04;100421.09;5091507;28;20044;-61
2022/04/03 08:12:07;;;;;;;2.53;1.83;;;;;;;5.08;54.19;100421.84;5091435;28;20500;-60
2022/04/03 08:14:34;;;;;;;1.73;1.23;;;;;;;5.16;54.52;100426.03;5091426;28;20056;-62
2022/04/03 08:17:00;;;;;;;3.60;1.80;;;;;;;5.22;54.95;100425.88;5091278;28;20047;-61
2022/04/03 08:19:27;;;;;;;3.80;1.60;;;;;;;5.29;55.18;100417.00;5091433;28;20047;-60
2022/04/03 08:21:53;;;;;;;3.22;1.63;;;;;;;5.34;55.20;100409.91;5090891;28;20059;-59
2022/04/03 08:24:20;;;;;;;2.03;1.30;;;;;;;5.40;55.14;100414.13;5091499;28;20063;-61
2022/04/03 08:26:47;;;;;;;3.55;1.70;;;;;;;5.45;55.26;100419.22;5091520;28;20044;-61
2022/04/03 08:29:13;;;;;;;2.13;1.58;;;;;;;5.49;55.69;100415.63;5091289;28;20048;-61
2022/04/03 08:31:40;;;;;;;1.80;1.30;;;;;;;5.56;55.66;100416.34;5091323;28;20109;-59
2022/04/03 08:34:07;;;;;;;2.50;1.40;;;;;;;5.61;55.69;100420.56;5089949;28;20538;-60
2022/04/03 08:36:53;;;;;;;5.38;1.20;;;;;;;5.67;55.55;100422.16;5091679;28;20117;-60
2022/04/03 08:39:20;;;;;;;3.85;1.60;;;;;;;5.71;55.28;100412.47;5090812;28;20104;-59
2022/04/03 08:41:46;;;;;;;2.08;1.23;;;;;;;5.72;55.43;100424.66;5091158;28;20048;-61
2022/04/03 08:44:13;;;;;;;3.00;1.70;;;;;;;5.73;55.32;100421.16;5091151;28;20048;-59
2022/04/03 08:46:45;;;;;;;4.30;1.58;;;;;;;5.71;55.52;100423.78;5091367;28;20051;-59
2022/04/03 08:49:12;;;;;;;2.88;1.23;;;;;;;5.76;55.88;100418.47;5090059;28;20052;-60
2022/04/03 08:51:41;;;;;;;2.47;1.42;;;;;;;5.81;56.24;100423.56;5090036;28;20059;-59
2022/04/03 08:54:09;;;;;;;2.13;1.42;;;;;;;5.91;56.52;100424.16;5089870;28;20052;-60
2022/04/03 08:56:35;;;;;;;1.63;1.30;;;;;;;6.02;56.09;100429.09;5090850;28;20488;-60
2022/04/03 08:59:02;;;;;;;3.30;1.50;;;;;;;6.12;56.36;100423.63;5091165;28;20109;-61
2022/04/03 09:01:29;;;;;;;5.68;1.70;;;;;;;6.23;56.49;100432.91;5090492;28;20097;-59
2022/04/03 09:03:56;;;;;;;2.47;1.55;;;;;;;6.34;56.07;100428.25;5090999;28;20080;-59
2022/04/03 09:06:23;;;;;;;2.13;1.27;;;;;;;6.42;55.84;100422.78;5090716;28;20165;-60
2022/04/03 09:08:49;;;;;;;3.60;1.38;;;;;;;6.49;55.34;100426.06;5090561;28;20044;-59
2022/04/03 09:11:16;;;;;;;2.35;1.40;;;;;;;6.53;54.90;100419.84;5090175;28;20062;-59
2022/04/03 09:13:45;;;;;;;6.28;1.70;;;;;;;6.54;54.89;100423.34;5090649;28;20044;-60
2022/04/03 09:16:12;;;;;;;1.92;1.65;;;;;;;6.53;54.63;100422.47;5089397;28;20047;-60
2022/04/03 09:18:59;;;;;;;3.00;2.05;;;;;;;6.48;55.09;100424.38;5090537;28;20055;-59
2022/04/03 09:21:26;;;;;;;4.60;1.35;;;;;;;6.52;55.03;100431.22;5088906;28;20048;-61
2022/04/03 09:23:57;;;;;;;1.73;1.30;;;;;;;6.49;54.91;100426.94;5089035;28;20059;-60
2022/04/03 09:26:24;;;;;;;1.67;1.40;;;;;;;6.51;55.01;100419.06;5090182;28;20090;-60
2022/04/03 09:29:07;;;;;;;3.00;1.60;;;;;;;6.47;55.55;100417.44;5090232;28;20048;-58
2022/04/03 09:31:33;;;;;;;1.65;1.45;;;;;;;6.51;55.25;100416.44;5089938;28;20828;-61
2022/04/03 09:34:06;;;;;;;3.42;1.52;;;;;;;6.51;55.69;100411.22;5089938;28;20145;-61
2022/04/03 09:36:35;;;;;;;1.92;1.33;;;;;;;6.56;55.76;100411.91;5090215;28;20047;-60
2022/04/03 09:39:16;;;;;;;4.78;1.67;;;;;;;6.58;55.54;100410.09;5090166;28;20052;-60
2022/04/03 09:42:12;;;;;;;3.00;1.27;;;;;;;6.65;55.64;100416.88;5089955;28;20742;-58
2022/04/03 09:44:44;;;;;;;3.63;1.30;;;;;;;6.72;55.84;100409.69;5088818;28;20812;-60
2022/04/03 09:47:21;;;;;;;2.72;1.30;;;;;;;6.79;55.74;100407.75;5090263;28;20106;-59
2022/04/03 09:49:57;;;;;;;3.78;1.65;;;;;;;6.86;54.70;100408.41;5088677;28;20044;-60
2022/04/03 09:52:45;;;;;;;1.90;1.20;;;;;;;6.89;54.74;100409.16;5090084;28;20737;-61
2022/04/03 09:55:16;;;;;;;5.07;1.40;;;;;;;7.00;55.20;100402.75;5088984;28;20436;-60
2022/04/03 09:57:45;;;;;;;7.15;1.80;;;;;;;7.10;55.34;100403.31;5088850;28;20044;-59
2022/04/03 10:00:34;;;;;;;3.45;1.30;;;;;;;7.26;55.94;100401.06;5088679;28;20493;-59
2022/04/03 10:03:04;;;;;;;1.83;1.33;;;;;;;7.39;55.62;100386.66;5088875;28;20146;-61
2022/04/03 10:05:36;;;;;;;2.38;1.30;;;;;;;7.58;55.61;100393.88;5089897;28;20048;-60
2022/04/03 10:08:05;;;;;;;4.40;1.60;;;;;;;7.75;55.55;100389.81;5090072;28;20060;-61
2022/04/03 10:10:34;;;;;;;3.65;1.45;;;;;;;7.92;55.24;100392.69;5088647;28;20117;-60
2022/04/03 10:13:02;;;;;;;4.63;1.60;;;;;;;8.07;55.11;100379.94;5089910;28;20071;-60
2022/04/03 10:15:29;;;;;;;3.75;1.73;;;;;;;8.21;55.24;100375.06;5088300;28;20455;-59
2022/04/03 10:17:56;;;;;;;3.83;1.50;;;;;;;8.37;55.17;100374.47;5090054;28;20117;-61
2022/04/03 10:20:30;;;;;;;4.65;1.70;;;;;;;8.53;54.74;100377.41;5089952;28;20129;-61
2022/04/03 10:23:04;;;;;;;2.90;1.25;;;;;;;8.69;54.16;100367.16;5089890;28;20394;-59
2022/04/03 10:25:35;;;;;;;1.65;1.48;;;;;;;8.87;53.91;100367.34;5089808;28;20060;-62
2022/04/03 10:28:05;;;;;;;3.42;1.40;;;;;;;9.03;53.81;100367.59;5089770;28;20052;-60
2022/04/03 10:30:43;;;;;;;2.15;1.40;;;;;;;9.18;53.74;100370.50;5088588;28;20052;-62
2022/04/03 10:33:20;;;;;;;2.50;1.50;;;;;;;9.32;53.73;100365.53;5090043;28;20055;-60
2022/04/03 10:35:49;;;;;;;4.70;1.70;;;;;;;9.48;54.24;100365.72;5089635;28;20052;-60
2022/04/03 10:38:19;;;;;;;1.80;1.40;;;;;;;9.63;53.43;100366.84;5088451;28;20397;-60
2022/04/03 10:40:59;;;;;;;3.97;1.45;;;;;;;9.78;52.84;100369.72;5089566;28;20094;-61
2022/04/03 10:43:28;;;;;;;2.53;1.30;;;;;;;9.96;52.72;100367.19;5089994;28;20101;-61
2022/04/03 10:45:55;;;;;;;2.95;1.40;;;;;;;10.08;52.83;100360.53;5092237;28;20056;-60
2022/04/03 10:48:24;;;;;;;3.17;1.70;;;;;;;10.21;52.29;100356.41;5093456;28;20117;-60
2022/04/03 10:51:00;;;;;;;3.50;1.23;;;;;;;10.28;50.75;100355.22;5092024;28;20055;-62
2022/04/03 10:53:32;;;;;;;3.13;1.67;;;;;;;10.40;51.49;100351.16;5092122;28;20044;-60
2022/04/03 10:56:07;;;;;;;4.88;1.20;;;;;;;10.53;51.77;100347.97;5093571;28;20481;-60
2022/04/03 10:58:40;;;;;;;5.03;1.30;;;;;;;10.64;50.20;100353.59;5091936;28;20059;-59
2022/04/03 11:01:11;;;;;;;2.15;1.27;;;;;;;10.76;50.63;100344.25;5091663;28;20044;-60
2022/04/03 11:03:39;;;;;;;2.42;1.35;;;;;;;10.87;50.98;100348.16;5092856;28;20411;-60
2022/04/03 11:06:20;;;;;;;2.53;1.20;;;;;;;10.91;49.46;100337.38;5093026;28;20078;-60
2022/04/03 11:08:59;;;;;;;1.83;1.38;;;;;;;11.03;49.69;100338.53;5093055;28;20492;-60
2022/04/03 11:11:52;;;;;;;3.67;1.38;;;;;;;11.16;49.13;100333.53;5091340;28;20416;-61
2022/04/03 11:14:52;;;;;;;1.73;1.08;;;;;;;11.24;48.01;100334.91;5092923;28;20048;-61
2022/04/03 11:17:39;;;;;;;2.25;1.40;;;;;;;11.31;49.35;100337.19;5092725;28;20055;-60
2022/04/03 11:20:07;;;;;;;2.85;1.05;;;;;;;11.39;49.95;100328.88;5092552;28;20044;-61
2022/04/03 11:22:35;;;;;;;2.33;1.25;;;;;;;11.52;49.95;100328.25;5092781;28;20047;-61
2022/04/03 11:25:03;;;;;;;1.58;1.10;;;;;;;11.71;50.72;100328.97;5091606;28;20117;-61
2022/04/03 11:27:30;;;;;;;2.45;1.10;;;;;;;12.01;51.40;100316.88;5092796;28;20064;-63
2022/04/03 11:29:58;;;;;;;1.52;1.17;;;;;;;12.40;51.00;100314.81;5092664;28;20051;-60
2022/04/03 11:32:26;;;;;;;1.73;1.00;;;;;;;12.87;51.44;100314.84;5091435;28;20056;-60
2022/04/03 11:34:57;;;;;;;3.55;1.10;;;;;;;13.36;48.74;100308.47;5092469;28;20503;-60
2022/04/03 11:37:24;;;;;;;1.90;1.05;;;;;;;13.92;50.46;100310.41;5091189;28;20052;-60